Time;durP1;ratioP1;P1;durP2;ratioP2;P2;SDS_P1;SDS_P2;PMS_P1;PMS_P2;Temp;Humidity;BMP_temperature;BMP_pressure;BME280_temperature;BME280_humidity;BME280_pressure;Samples;Min_cycle;Max_cycle;Signal;HPM_P1;HPM_P2
2023/08/15 00:01:41;;;;;;;;;;;;;;;27.57;100.00;97835.59;5076629;28;19934;-74
2023/08/15 00:04:08;;;;;;;;;;;;;;;27.58;100.00;97831.69;5077945;28;19950;-73
2023/08/15 00:06:34;;;;;;;;;;;;;;;27.59;100.00;97834.06;5082858;28;19932;-76
2023/08/15 00:09:00;;;;;;;;;;;;;;;27.62;100.00;97830.56;5083745;28;20676;-75
2023/08/15 00:11:28;;;;;;;;;;;;;;;27.60;100.00;97835.66;5081684;28;19938;-75
2023/08/15 00:13:56;;;;;;;;;;;;;;;27.59;100.00;97834.06;5075333;28;20034;-74
2023/08/15 00:16:22;;;;;;;;;;;;;;;27.59;100.00;97836.81;5084103;28;19924;-74
2023/08/15 00:18:49;;;;;;;;;;;;;;;27.57;100.00;97833.66;5083362;28;19938;-74
2023/08/15 00:21:15;;;;;;;;;;;;;;;27.55;100.00;97838.72;5078428;28;20007;-74
2023/08/15 00:23:41;;;;;;;;;;;;;;;27.56;100.00;97840.31;5078027;28;19928;-75
2023/08/15 00:26:08;;;;;;;;;;;;;;;27.53;100.00;97838.31;5080221;28;19977;-74
2023/08/15 00:28:36;;;;;;;;;;;;;;;27.54;100.00;97823.44;5084441;28;19981;-73
2023/08/15 00:31:02;;;;;;;;;;;;;;;27.55;100.00;97827.75;5079299;28;20672;-75
2023/08/15 00:33:28;;;;;;;;;;;;;;;27.33;100.00;97820.41;5084609;28;20015;-74
2023/08/15 00:35:55;;;;;;;;;;;;;;;27.16;100.00;97816.31;5069620;28;20507;-75
2023/08/15 00:38:21;;;;;;;;;;;;;;;27.20;100.00;97817.13;5081576;28;19930;-74
2023/08/15 00:40:47;;;;;;;;;;;;;;;27.22;100.00;97825.00;5079351;28;20031;-74
2023/08/15 00:43:17;;;;;;;;;;;;;;;27.20;100.00;97816.34;5079738;28;19935;-75
2023/08/15 00:45:45;;;;;;;;;;;;;;;27.24;100.00;97828.13;5085168;28;20460;-74
2023/08/15 00:48:11;;;;;;;;;;;;;;;27.14;100.00;97829.59;5063887;28;19978;-74
2023/08/15 00:50:38;;;;;;;;;;;;;;;27.17;100.00;97828.84;5061834;28;20640;-75
2023/08/15 00:53:06;;;;;;;;;;;;;;;27.22;100.00;97830.47;5060723;28;20020;-75
2023/08/15 00:55:33;;;;;;;;;;;;;;;27.18;100.00;97829.63;5083388;28;20023;-74
2023/08/15 00:58:00;;;;;;;;;;;;;;;27.16;100.00;97821.78;5077876;28;19934;-75
2023/08/15 01:00:27;;;;;;;;;;;;;;;27.15;100.00;97827.63;5064969;28;20521;-75
2023/08/15 01:02:54;;;;;;;;;;;;;;;27.15;100.00;97824.91;5069748;28;20023;-74
2023/08/15 01:05:21;;;;;;;;;;;;;;;27.13;100.00;97827.22;5078399;28;19934;-75
2023/08/15 01:07:47;;;;;;;;;;;;;;;27.09;100.00;97837.34;5081890;28;20015;-75
2023/08/15 01:10:13;;;;;;;;;;;;;;;27.10;100.00;97822.50;5083162;28;19995;-74
2023/08/15 01:12:44;;;;;;;;;;;;;;;27.06;100.00;97843.59;5074222;28;19993;-74
2023/08/15 01:15:13;;;;;;;;;;;;;;;27.06;100.00;97843.59;5083541;28;19936;-75
2023/08/15 01:17:44;;;;;;;;;;;;;;;26.90;100.00;97837.50;5081244;28;20008;-75
2023/08/15 01:20:15;;;;;;;;;;;;;;;26.86;100.00;97834.72;5054191;28;20018;-74
2023/08/15 01:22:43;;;;;;;;;;;;;;;26.84;100.00;97842.50;5082786;28;20881;-74
2023/08/15 01:25:12;;;;;;;;;;;;;;;26.85;100.00;97837.81;5060918;28;20019;-74
2023/08/15 01:27:38;;;;;;;;;;;;;;;26.88;100.00;97846.09;5075896;28;20488;-73
2023/08/15 01:30:05;;;;;;;;;;;;;;;26.94;100.00;97843.81;5080336;28;19967;-73
2023/08/15 01:32:34;;;;;;;;;;;;;;;26.96;100.00;97836.81;5075417;28;20575;-73
2023/08/15 01:35:06;;;;;;;;;;;;;;;26.98;100.00;97837.25;5073663;28;19929;-73
2023/08/15 01:37:32;;;;;;;;;;;;;;;27.00;100.00;97840.38;5083395;28;20524;-72
2023/08/15 01:40:01;;;;;;;;;;;;;;;27.00;100.00;97834.91;5082723;28;20022;-74
2023/08/15 01:42:30;;;;;;;;;;;;;;;26.99;100.00;97832.53;5082397;28;20027;-74
2023/08/15 01:44:57;;;;;;;;;;;;;;;26.97;100.00;97832.91;5059783;28;19954;-74
2023/08/15 01:47:23;;;;;;;;;;;;;;;26.96;100.00;97833.25;5079613;28;19974;-74
2023/08/15 01:49:50;;;;;;;;;;;;;;;26.94;100.00;97828.16;5063407;28;19936;-74
2023/08/15 01:52:16;;;;;;;;;;;;;;;26.92;100.00;97833.25;5084018;28;19928;-74
2023/08/15 01:54:42;;;;;;;;;;;;;;;26.93;100.00;97825.78;5080613;28;20022;-74
2023/08/15 01:57:09;;;;;;;;;;;;;;;26.95;100.00;97831.72;5082988;28;19934;-74
2023/08/15 01:59:36;;;;;;;;;;;;;;;26.91;100.00;97826.19;5078633;28;19968;-74
2023/08/15 02:02:06;;;;;;;;;;;;;;;26.92;100.00;97826.97;5080803;28;19988;-74
2023/08/15 02:04:32;;;;;;;;;;;;;;;26.91;100.00;97830.84;5084181;28;20552;-74
2023/08/15 02:06:59;;;;;;;;;;;;;;;26.88;100.00;97824.19;5081218;28;19946;-73
2023/08/15 02:09:26;;;;;;;;;;;;;;;26.83;100.00;97822.53;5064539;28;19930;-74
2023/08/15 02:11:52;;;;;;;;;;;;;;;26.83;100.00;97822.53;5061154;28;19967;-74
2023/08/15 02:14:19;;;;;;;;;;;;;;;26.83;100.00;97819.03;5082252;28;20047;-75
2023/08/15 02:16:46;;;;;;;;;;;;;;;26.84;100.00;97815.13;5085444;28;19930;-74
2023/08/15 02:19:13;;;;;;;;;;;;;;;26.83;100.00;97819.78;5082284;28;19931;-74
2023/08/15 02:21:39;;;;;;;;;;;;;;;26.83;100.00;97819.78;5084881;28;19947;-74
2023/08/15 02:24:06;;;;;;;;;;;;;;;26.85;100.00;97821.38;5073505;28;19931;-73
2023/08/15 02:26:32;;;;;;;;;;;;;;;26.83;100.00;97823.72;5083693;28;20704;-74
2023/08/15 02:28:58;;;;;;;;;;;;;;;26.79;100.00;97821.69;5080889;28;19932;-75
2023/08/15 02:31:26;;;;;;;;;;;;;;;26.82;100.00;97825.66;5083407;28;19946;-74
2023/08/15 02:33:53;;;;;;;;;;;;;;;26.78;100.00;97825.59;5067631;28;20325;-74
2023/08/15 02:36:21;;;;;;;;;;;;;;;26.76;100.00;97822.44;5070006;28;19924;-75
2023/08/15 02:38:47;;;;;;;;;;;;;;;26.75;100.00;97820.84;5072837;28;20402;-74
2023/08/15 02:41:13;;;;;;;;;;;;;;;26.55;100.00;97815.88;5076278;28;20032;-75
2023/08/15 02:43:40;;;;;;;;;;;;;;;26.50;100.00;97819.69;5071498;28;20414;-73
2023/08/15 02:46:07;;;;;;;;;;;;;;;26.51;100.00;97813.06;5078415;28;20294;-74
2023/08/15 02:48:33;;;;;;;;;;;;;;;26.40;100.00;97809.38;5085061;28;19928;-74
2023/08/15 02:51:01;;;;;;;;;;;;;;;26.29;100.00;97813.91;5081366;28;19934;-74
2023/08/15 02:53:27;;;;;;;;;;;;;;;26.15;100.00;97827.34;5087084;28;20011;-74
2023/08/15 02:55:54;;;;;;;;;;;;;;;26.36;100.00;97824.97;5083427;28;19934;-74
2023/08/15 02:58:20;;;;;;;;;;;;;;;26.41;100.00;97812.91;5086960;28;20031;-74
2023/08/15 03:00:46;;;;;;;;;;;;;;;26.51;100.00;97817.75;5083243;28;20011;-73
2023/08/15 03:03:13;;;;;;;;;;;;;;;26.54;100.00;97820.56;5085748;28;20066;-73
2023/08/15 03:05:39;;;;;;;;;;;;;;;26.56;100.00;97815.47;5080348;28;19939;-74
2023/08/15 03:08:07;;;;;;;;;;;;;;;26.58;100.00;97815.94;5058657;28;20010;-74
2023/08/15 03:10:36;;;;;;;;;;;;;;;26.59;100.00;97814.75;5086432;28;19930;-73
2023/08/15 03:13:02;;;;;;;;;;;;;;;26.62;100.00;97813.22;5083738;28;19928;-74
2023/08/15 03:15:29;;;;;;;;;;;;;;;26.61;100.00;97814.38;5068031;28;19930;-74
2023/08/15 03:17:57;;;;;;;;;;;;;;;26.58;100.00;97813.19;5067129;28;19924;-75
2023/08/15 03:20:23;;;;;;;;;;;;;;;26.55;100.00;97808.44;5079104;28;19928;-73
2023/08/15 03:22:49;;;;;;;;;;;;;;;26.54;100.00;97804.13;5080273;28;19932;-74
2023/08/15 03:25:17;;;;;;;;;;;;;;;26.52;100.00;97809.16;5083814;28;20023;-74
2023/08/15 03:27:44;;;;;;;;;;;;;;;26.50;100.00;97814.22;5086429;28;20028;-73
2023/08/15 03:30:10;;;;;;;;;;;;;;;26.51;100.00;97812.28;5082963;28;19943;-74
2023/08/15 03:32:37;;;;;;;;;;;;;;;26.51;100.00;97817.75;5085183;28;19936;-74
2023/08/15 03:35:03;;;;;;;;;;;;;;;26.31;100.00;97808.84;5086442;28;19935;-74
2023/08/15 03:37:30;;;;;;;;;;;;;;;26.17;100.00;97816.84;5084558;28;20019;-73
2023/08/15 03:39:56;;;;;;;;;;;;;;;26.20;100.00;97802.44;5081216;28;20387;-75
2023/08/15 03:42:24;;;;;;;;;;;;;;;26.27;100.00;97813.50;5083478;28;19934;-74
2023/08/15 03:44:50;;;;;;;;;;;;;;;26.29;100.00;97822.91;5085041;28;20019;-74
2023/08/15 03:47:16;;;;;;;;;;;;;;;26.30;100.00;97818.25;5086307;28;20032;-74
2023/08/15 03:49:43;;;;;;;;;;;;;;;26.34;100.00;97818.28;5067039;28;19924;-73
2023/08/15 03:52:08;;;;;;;;;;;;;;;26.35;100.00;97830.81;5081709;28;19928;-74
2023/08/15 03:54:34;;;;;;;;;;;;;;;26.34;100.00;97824.53;5085641;28;20078;-74
2023/08/15 03:57:01;;;;;;;;;;;;;;;26.35;100.00;97822.59;5079458;28;19928;-74
2023/08/15 03:59:28;;;;;;;;;;;;;;;26.36;100.00;97822.25;5084251;28;19974;-74
2023/08/15 04:01:55;;;;;;;;;;;;;;;26.35;100.00;97817.91;5087909;28;19959;-75
2023/08/15 04:04:21;;;;;;;;;;;;;;;26.18;100.00;97826.66;5087825;28;19928;-75
2023/08/15 04:06:48;;;;;;;;;;;;;;;26.14;100.00;97821.09;5083986;28;20027;-74
2023/08/15 04:09:14;;;;;;;;;;;;;;;26.23;100.00;97824.38;5080769;28;19924;-74
2023/08/15 04:11:40;;;;;;;;;;;;;;;26.26;100.00;97833.81;5086033;28;20010;-74
2023/08/15 04:14:07;;;;;;;;;;;;;;;26.24;100.00;97841.59;5085347;28;20618;-74
2023/08/15 04:16:35;;;;;;;;;;;;;;;26.25;100.00;97843.16;5082007;28;19928;-74
2023/08/15 04:19:01;;;;;;;;;;;;;;;26.24;100.00;97839.63;5084118;28;20608;-74
2023/08/15 04:21:28;;;;;;;;;;;;;;;26.24;100.00;97845.13;5085751;28;19924;-74
2023/08/15 04:23:54;;;;;;;;;;;;;;;26.24;100.00;97847.09;5082767;28;20347;-74
2023/08/15 04:26:20;;;;;;;;;;;;;;;26.22;100.00;97841.97;5080233;28;20421;-73
2023/08/15 04:28:47;;;;;;;;;;;;;;;26.25;100.00;97845.91;5082445;28;19924;-73
2023/08/15 04:31:13;;;;;;;;;;;;;;;26.25;100.00;97848.66;5067626;28;20693;-74
2023/08/15 04:33:41;;;;;;;;;;;;;;;26.22;100.00;97841.16;5081822;28;19924;-74
2023/08/15 04:36:07;;;;;;;;;;;;;;;26.19;100.00;97839.16;5084616;28;19934;-73
2023/08/15 04:38:33;;;;;;;;;;;;;;;26.19;100.00;97839.16;5080503;28;19924;-74
2023/08/15 04:41:00;;;;;;;;;;;;;;;26.18;100.00;97832.91;5083360;28;19928;-75
2023/08/15 04:43:26;;;;;;;;;;;;;;;26.19;100.00;97836.44;5079779;28;20452;-73
2023/08/15 04:45:53;;;;;;;;;;;;;;;26.18;100.00;97832.13;5076012;28;19925;-74
2023/08/15 04:48:19;;;;;;;;;;;;;;;26.20;100.00;97827.06;5066988;28;20024;-74
2023/08/15 04:50:47;;;;;;;;;;;;;;;26.23;100.00;97840.03;5080471;28;19928;-74
2023/08/15 04:53:13;;;;;;;;;;;;;;;26.25;100.00;97840.44;5086412;28;19924;-73
2023/08/15 04:55:39;;;;;;;;;;;;;;;26.03;100.00;97841.19;5080583;28;20539;-74
2023/08/15 04:58:09;;;;;;;;;;;;;;;25.86;100.00;97847.97;5057287;28;20003;-74
2023/08/15 05:00:35;;;;;;;;;;;;;;;25.51;100.00;97842.63;5079512;28;19974;-74
2023/08/15 05:03:01;;;;;;;;;;;;;;;25.71;100.00;97843.41;5081653;28;19931;-73
2023/08/15 05:05:28;;;;;;;;;;;;;;;25.70;100.00;97855.50;5063288;28;19971;-74
2023/08/15 05:07:56;;;;;;;;;;;;;;;25.74;100.00;97862.63;5083264;28;19958;-74
2023/08/15 05:10:22;;;;;;;;;;;;;;;25.59;100.00;97866.22;5078641;28;20501;-75
2023/08/15 05:12:48;;;;;;;;;;;;;;;25.63;100.00;97855.34;5084368;28;20043;-75
2023/08/15 05:15:15;;;;;;;;;;;;;;;25.63;100.00;97869.81;5081028;28;20355;-74
2023/08/15 05:17:43;;;;;;;;;;;;;;;25.78;100.00;97871.66;5083712;28;19934;-73
2023/08/15 05:20:10;;;;;;;;;;;;;;;25.88;100.00;97864.81;5084537;28;19934;-74
2023/08/15 05:22:36;;;;;;;;;;;;;;;25.88;100.00;97866.75;5082183;28;19928;-74
2023/08/15 05:25:05;;;;;;;;;;;;;;;25.90;100.00;97865.25;5081330;28;19971;-73
2023/08/15 05:27:31;;;;;;;;;;;;;;;25.97;100.00;97875.50;5079563;28;19938;-74
2023/08/15 05:29:57;;;;;;;;;;;;;;;25.86;100.00;97885.47;5084049;28;19975;-74
2023/08/15 05:32:24;;;;;;;;;;;;;;;25.76;100.00;97875.91;5080561;28;19924;-74
2023/08/15 05:34:50;;;;;;;;;;;;;;;25.39;100.00;97891.19;5082664;28;19934;-74
2023/08/15 05:37:16;;;;;;;;;;;;;;;25.40;100.00;97895.50;5079650;28;19931;-74
2023/08/15 05:39:43;;;;;;;;;;;;;;;25.37;100.00;97898.97;5082607;28;20003;-74
2023/08/15 05:42:17;;;;;;;;;;;;;;;25.51;100.00;97897.31;5062738;28;19936;-75
2023/08/15 05:44:43;;;;;;;;;;;;;;;25.65;100.00;97897.63;5080934;28;19939;-74
2023/08/15 05:47:09;;;;;;;;;;;;;;;25.40;100.00;97895.50;5078327;28;19924;-74
2023/08/15 05:49:36;;;;;;;;;;;;;;;25.57;100.00;97892.34;5080582;28;20415;-74
2023/08/15 05:52:02;;;;;;;;;;;;;;;25.75;100.00;97896.22;5083010;28;19934;-74
2023/08/15 05:54:29;;;;;;;;;;;;;;;25.96;100.00;97896.63;5079348;28;20007;-74
2023/08/15 05:56:56;;;;;;;;;;;;;;;26.24;100.00;97890.88;5084033;28;20301;-74
2023/08/15 05:59:23;;;;;;;;;;;;;;;26.44;100.00;97886.91;5080593;28;19931;-75
2023/08/15 06:01:50;;;;;;;;;;;;;;;26.49;100.00;97896.78;5082936;28;20597;-74
2023/08/15 06:04:16;;;;;;;;;;;;;;;26.54;100.00;97889.03;5079726;28;20393;-74
2023/08/15 06:06:42;;;;;;;;;;;;;;;26.63;100.00;97889.56;5082902;28;20555;-74
2023/08/15 06:09:09;;;;;;;;;;;;;;;26.75;100.00;97891.28;5082934;28;19924;-74
2023/08/15 06:11:35;;;;;;;;;;;;;;;26.88;100.00;97897.38;5085327;28;20129;-74
2023/08/15 06:14:02;;;;;;;;;;;;;;;26.94;100.00;97902.16;5087635;28;19935;-74
2023/08/15 06:16:29;;;;;;;;;;;;;;;27.07;100.00;97891.78;5067135;28;20406;-74
2023/08/15 06:18:56;;;;;;;;;;;;;;;27.17;100.00;97897.38;5086568;28;20111;-74
2023/08/15 06:21:22;;;;;;;;;;;;;;;27.23;100.00;97898.63;5083237;28;20019;-75
2023/08/15 06:23:49;;;;;;;;;;;;;;;27.33;100.00;97899.94;5085826;28;19930;-73
2023/08/15 06:26:15;;;;;;;;;;;;;;;27.33;100.00;97903.47;5082335;28;20014;-73
2023/08/15 06:28:41;;;;;;;;;;;;;;;27.45;100.00;97905.22;5084714;28;19932;-74
2023/08/15 06:31:08;;;;;;;;;;;;;;;27.50;100.00;97901.34;5087542;28;19974;-74
2023/08/15 06:33:35;;;;;;;;;;;;;;;27.55;100.00;97893.56;5083778;28;19939;-74
2023/08/15 06:36:02;;;;;;;;;;;;;;;27.61;100.00;97892.06;5089199;28;19928;-73
2023/08/15 06:38:28;;;;;;;;;;;;;;;27.26;100.00;97910.84;5084586;28;19924;-74
2023/08/15 06:40:54;;;;;;;;;;;;;;;27.10;100.00;97912.97;5089293;28;19950;-75
2023/08/15 06:43:21;;;;;;;;;;;;;;;27.12;100.00;97916.13;5089202;28;20031;-74
2023/08/15 06:45:47;;;;;;;;;;;;;;;27.24;100.00;97916.69;5079917;28;20023;-74
2023/08/15 06:48:14;;;;;;;;;;;;;;;27.11;100.00;97912.56;5070745;28;20331;-75
2023/08/15 06:50:42;;;;;;;;;;;;;;;27.33;100.00;97911.69;5084604;28;19928;-74
2023/08/15 06:53:08;;;;;;;;;;;;;;;27.25;100.00;97910.03;5087239;28;20119;-74
2023/08/15 06:55:35;;;;;;;;;;;;;;;27.16;100.00;97908.72;5086994;28;20520;-74
2023/08/15 06:58:01;;;;;;;;;;;;;;;27.28;100.00;97905.75;5084209;28;19928;-74
2023/08/15 07:00:27;;;;;;;;;;;;;;;27.03;100.00;97901.91;5066919;28;19928;-74
2023/08/15 07:02:54;;;;;;;;;;;;;;;26.83;100.00;97900.44;5066950;28;19927;-73
2023/08/15 07:05:20;;;;;;;;;;;;;;;26.71;100.00;97899.44;5082270;28;19924;-75
2023/08/15 07:07:48;;;;;;;;;;;;;;;26.73;100.00;97902.63;5086172;28;19924;-75
2023/08/15 07:10:14;;;;;;;;;;;;;;;26.69;100.00;97910.00;5079933;28;19964;-75
2023/08/15 07:12:40;;;;;;;;;;;;;;;26.54;100.00;97905.47;5086529;28;19934;-74
2023/08/15 07:15:07;;;;;;;;;;;;;;;26.46;100.00;97901.00;5083227;28;19960;-74
2023/08/15 07:17:33;;;;;;;;;;;;;;;26.63;100.00;97905.19;5081151;28;19936;-74
2023/08/15 07:20:00;;;;;;;;;;;;;;;26.46;100.00;97909.22;5086750;28;19993;-75
2023/08/15 07:22:26;;;;;;;;;;;;;;;26.53;100.00;97912.09;5084176;28;20018;-74
2023/08/15 07:24:54;;;;;;;;;;;;;;;26.47;100.00;97907.28;5084954;28;20027;-75
2023/08/15 07:27:20;;;;;;;;;;;;;;;26.40;100.00;97902.47;5080057;28;20019;-75
2023/08/15 07:29:47;;;;;;;;;;;;;;;26.53;100.00;97914.81;5068559;28;20395;-75
2023/08/15 07:32:13;;;;;;;;;;;;;;;26.49;100.00;97907.72;5082588;28;19935;-74
2023/08/15 07:34:39;;;;;;;;;;;;;;;26.65;100.00;97911.88;5086405;28;19934;-75
2023/08/15 07:37:06;;;;;;;;;;;;;;;26.57;100.00;97918.41;5075684;28;19963;-74
2023/08/15 07:39:32;;;;;;;;;;;;;;;26.83;100.00;97927.84;5083194;28;19947;-74
2023/08/15 07:41:59;;;;;;;;;;;;;;;26.67;100.00;97920.53;5083882;28;19924;-75
2023/08/15 07:44:27;;;;;;;;;;;;;;;26.80;100.00;97924.66;5080197;28;19927;-75
2023/08/15 07:46:53;;;;;;;;;;;;;;;26.96;100.00;97920.97;5080153;28;19935;-75
2023/08/15 08:05:28;;;;;;;;;;;;;;;27.24;100.00;97932.34;5122774;27;19988;-75
2023/08/15 08:07:54;;;;;;;;;;;;;;;27.25;100.00;97936.66;5115702;28;19924;-75
2023/08/15 08:10:21;;;;;;;;;;;;;;;27.25;100.00;97933.91;5115592;28;19924;-75
2023/08/15 08:12:47;;;;;;;;;;;;;;;27.30;100.00;97942.59;5116449;28;20014;-76
2023/08/15 08:15:13;;;;;;;;;;;;;;;27.37;100.00;97936.44;5116144;28;19962;-75
2023/08/15 08:17:40;;;;;;;;;;;;;;;27.31;100.00;97935.19;5107870;28;19947;-76
2023/08/15 08:20:11;;;;;;;;;;;;;;;27.56;100.00;97941.81;5107969;28;19925;-76
2023/08/15 08:22:39;;;;;;;;;;;;;;;27.46;100.00;97944.41;5106369;28;19924;-76
2023/08/15 08:25:12;;;;;;;;;;;;;;;27.52;100.00;97938.22;5107413;28;19982;-76
2023/08/15 08:27:39;;;;;;;;;;;;;;;27.69;100.00;97948.63;5106889;28;19935;-76
2023/08/15 08:30:06;;;;;;;;;;;;;;;27.93;100.00;97941.03;5106914;28;19951;-76
2023/08/15 08:32:32;;;;;;;;;;;;;;;28.22;100.00;97937.47;5106443;28;19924;-76
2023/08/15 08:34:59;;;;;;;;;;;;;;;27.97;100.00;97933.63;5106631;28;19921;-76
2023/08/15 08:37:25;;;;;;;;;;;;;;;27.95;100.00;97934.00;5106704;28;19951;-75
2023/08/15 08:39:53;;;;;;;;;;;;;;;28.03;100.00;97940.38;5106390;28;19924;-75
2023/08/15 08:42:20;;;;;;;;;;;;;;;28.04;100.00;97941.97;5107098;28;19963;-75
2023/08/15 08:44:47;;;;;;;;;;;;;;;27.97;100.00;97941.88;5106237;28;19924;-75
2023/08/15 08:47:13;;;;;;;;;;;;;;;28.11;100.00;97939.28;5125814;28;20285;-75
2023/08/15 08:49:41;;;;;;;;;;;;;;;28.06;100.00;97937.69;5114614;28;20401;-75
2023/08/15 08:52:08;;;;;;;;;;;;;;;28.13;100.00;97940.50;5113212;28;19930;-75
2023/08/15 08:54:35;;;;;;;;;;;;;;;28.27;100.00;97940.66;5113433;28;20016;-75
2023/08/15 08:57:04;;;;;;;;;;;;;;;28.28;100.00;97946.94;5117202;28;19935;-75
2023/08/15 08:59:32;;;;;;;;;;;;;;;28.14;100.00;97938.53;5116644;28;19924;-75
2023/08/15 09:01:59;;;;;;;;;;;;;;;28.05;100.00;97932.56;5115561;28;19920;-76
2023/08/15 09:04:26;;;;;;;;;;;;;;;28.55;100.00;97929.13;5114262;28;19925;-75
2023/08/15 09:06:52;;;;;;;;;;;;;;;28.72;100.00;97936.72;5115842;28;19947;-76
2023/08/15 09:09:19;;;;;;;;;;;;;;;28.83;100.00;97929.38;5117902;28;19931;-76
2023/08/15 09:11:46;;;;;;;;;;;;;;;28.59;100.00;97934.66;5117290;28;19950;-76
2023/08/15 09:14:14;;;;;;;;;;;;;;;28.80;100.00;97937.56;5114417;28;19925;-75
2023/08/15 09:16:46;;;;;;;;;;;;;;;28.43;100.00;97932.16;5093879;28;19928;-76
2023/08/15 09:19:12;;;;;;;;;;;;;;;28.45;100.00;97934.50;5092469;28;20518;-76
2023/08/15 09:21:38;;;;;;;;;;;;;;;28.39;100.00;97934.88;5090982;28;19928;-76
2023/08/15 09:24:05;;;;;;;;;;;;;;;28.44;100.00;97938.44;5091032;28;19932;-76
2023/08/15 09:26:33;;;;;;;;;;;;;;;28.74;100.00;97933.59;5099381;28;19925;-76
2023/08/15 09:28:59;;;;;;;;;;;;;;;28.68;100.00;97927.69;5110058;28;19963;-76
2023/08/15 09:31:28;;;;;;;;;;;;;;;28.93;100.00;97934.16;5103954;28;19935;-76
2023/08/15 09:33:54;;;;;;;;;;;;;;;29.28;100.00;97930.81;5101828;28;19925;-76
2023/08/15 09:36:23;;;;;;;;;;;;;;;28.89;100.00;97925.09;5100893;28;19964;-77
2023/08/15 09:38:51;;;;;;;;;;;;;;;28.72;100.00;97933.22;5101670;28;19928;-77
2023/08/15 09:41:20;;;;;;;;;;;;;;;29.09;100.00;97925.56;5103878;28;19924;-77
2023/08/15 09:43:51;;;;;;;;;;;;;;;29.55;100.00;97923.09;5102671;28;19950;-76
2023/08/15 09:46:18;;;;;;;;;;;;;;;29.37;100.00;97919.50;5111515;28;19926;-76
2023/08/15 09:48:47;;;;;;;;;;;;;;;29.35;100.00;97911.63;5101887;28;20410;-75
2023/08/15 09:51:15;;;;;;;;;;;;;;;29.63;100.00;97919.19;5099924;28;19924;-75
2023/08/15 09:53:42;;;;;;;;;;;;;;;29.79;100.00;97908.63;5099858;28;19924;-75
2023/08/15 09:56:08;;;;;;;;;;;;;;;29.51;100.00;97908.53;5103391;28;19931;-75
2023/08/15 09:58:35;;;;;;;;;;;;;;;29.21;100.00;97903.28;5102402;28;19924;-75
2023/08/15 10:01:03;;;;;;;;;;;;;;;29.18;100.00;97893.03;5099178;28;19958;-75
2023/08/15 10:03:34;;;;;;;;;;;;;;;29.35;100.00;97903.34;5099975;28;19974;-75
2023/08/15 10:06:02;;;;;;;;;;;;;;;29.42;100.00;97908.09;5102547;28;19958;-76
2023/08/15 10:08:33;;;;;;;;;;;;;;;29.31;100.00;97901.75;5103192;28;19924;-75
2023/08/15 10:10:59;;;;;;;;;;;;;;;29.15;100.00;97904.81;5100750;28;19924;-75
2023/08/15 10:13:27;;;;;;;;;;;;;;;29.03;100.00;97904.34;5099471;28;19966;-75
2023/08/15 10:15:54;;;;;;;;;;;;;;;29.26;100.00;97896.63;5098881;28;19958;-75
2023/08/15 10:18:20;;;;;;;;;;;;;;;29.33;100.00;97899.44;5097766;28;19924;-75
2023/08/15 10:20:50;;;;;;;;;;;;;;;29.64;100.00;97896.00;5103342;28;19972;-76
2023/08/15 10:23:24;;;;;;;;;;;;;;;29.77;100.00;97899.97;5098841;28;19936;-76
2023/08/15 10:25:52;;;;;;;;;;;;;;;30.06;100.00;97891.78;5101055;28;19932;-76
2023/08/15 10:28:19;;;;;;;;;;;;;;;30.21;100.00;97885.91;5102893;28;19924;-76
2023/08/15 10:30:47;;;;;;;;;;;;;;;30.24;100.00;97895.34;5101901;28;20373;-76
2023/08/15 10:33:17;;;;;;;;;;;;;;;30.54;100.00;97893.03;5098207;28;19967;-76
2023/08/15 10:35:49;;;;;;;;;;;;;;;30.33;98.85;97882.75;5099991;28;19987;-76
2023/08/15 10:38:16;;;;;;;;;;;;;;;30.56;100.00;97885.16;5135730;27;19974;-76
2023/08/15 10:40:44;;;;;;;;;;;;;;;30.81;100.00;97885.91;5101491;28;19920;-76
2023/08/15 10:43:12;;;;;;;;;;;;;;;30.78;100.00;97883.16;5099172;28;19924;-76
2023/08/15 10:45:42;;;;;;;;;;;;;;;30.79;97.52;97885.53;5110714;28;19923;-76
2023/08/15 10:48:09;;;;;;;;;;;;;;;30.69;97.35;97880.81;5101556;28;19931;-76
2023/08/15 10:50:36;;;;;;;;;;;;;;;30.64;95.82;97883.19;5102311;28;20319;-76
2023/08/15 10:53:04;;;;;;;;;;;;;;;30.65;99.40;97876.47;5099342;28;19944;-75
2023/08/15 10:55:31;;;;;;;;;;;;;;;30.83;99.74;97875.25;5097572;28;19925;-75
2023/08/15 10:58:00;;;;;;;;;;;;;;;30.99;97.83;97880.38;5101223;28;19928;-76
2023/08/15 11:00:26;;;;;;;;;;;;;;;31.15;96.87;97872.47;5102163;28;19974;-77
2023/08/15 11:02:54;;;;;;;;;;;;;;;30.93;95.17;97868.94;5099919;28;19924;-76
2023/08/15 11:05:20;;;;;;;;;;;;;;;30.75;96.63;97868.19;5098428;28;19924;-76
2023/08/15 11:07:47;;;;;;;;;;;;;;;30.82;99.11;97872.91;5099228;28;20379;-75
2023/08/15 11:10:13;;;;;;;;;;;;;;;31.02;97.66;97857.53;5101921;28;19924;-78
2023/08/15 11:12:45;;;;;;;;;;;;;;;31.17;94.57;97856.28;5102210;28;19924;-76
2023/08/15 11:15:13;;;;;;;;;;;;;;;31.35;91.93;97861.75;5089471;28;19948;-75
2023/08/15 11:17:39;;;;;;;;;;;;;;;31.20;91.79;97863.75;5088573;28;19970;-76
2023/08/15 11:20:06;;;;;;;;;;;;;;;31.12;89.22;97861.44;5101970;28;19924;-76
2023/08/15 11:22:33;;;;;;;;;;;;;;;31.15;86.24;97855.13;5100674;28;19950;-76
2023/08/15 11:24:59;;;;;;;;;;;;;;;31.15;80.24;97858.66;5098067;28;19924;-76
2023/08/15 11:27:25;;;;;;;;;;;;;;;31.18;79.14;97870.88;5098319;28;19942;-77
2023/08/15 11:29:56;;;;;;;;;;;;;;;31.02;89.04;97861.06;5100128;28;19932;-77
2023/08/15 11:32:25;;;;;;;;;;;;;;;31.09;92.24;97865.78;5101832;28;19924;-77
2023/08/15 11:34:51;;;;;;;;;;;;;;;31.21;94.42;97861.78;5098754;28;20396;-77
2023/08/15 11:37:18;;;;;;;;;;;;;;;31.37;94.67;97862.13;5098072;28;19924;-77
2023/08/15 11:39:51;;;;;;;;;;;;;;;31.34;85.03;97860.97;5097385;28;19935;-76
2023/08/15 11:42:18;;;;;;;;;;;;;;;31.35;88.57;97861.75;5100296;28;20503;-77
2023/08/15 11:44:44;;;;;;;;;;;;;;;31.49;89.51;97861.69;5101060;28;19924;-77
2023/08/15 11:47:14;;;;;;;;;;;;;;;31.59;88.81;97863.63;5109000;28;19996;-78
2023/08/15 11:49:46;;;;;;;;;;;;;;;31.64;84.75;97865.16;5098089;28;19935;-77
2023/08/15 11:52:12;;;;;;;;;;;;;;;31.62;78.62;97854.53;5089651;28;19928;-78
2023/08/15 11:54:39;;;;;;;;;;;;;;;31.66;76.27;97858.06;5088617;28;19921;-78
2023/08/15 11:57:05;;;;;;;;;;;;;;;31.60;79.09;97861.66;5088332;28;20569;-77
2023/08/15 11:59:32;;;;;;;;;;;;;;;31.62;78.21;97857.31;5096676;28;19925;-77
2023/08/15 12:01:58;;;;;;;;;;;;;;;31.56;78.17;97856.16;5088465;28;19930;-77
2023/08/15 12:04:25;;;;;;;;;;;;;;;31.65;76.08;97852.94;5088365;28;19934;-78
2023/08/15 12:06:52;;;;;;;;;;;;;;;31.66;77.85;97851.75;5097085;28;19931;-77
2023/08/15 12:09:19;;;;;;;;;;;;;;;31.60;82.91;97850.63;5098917;28;19924;-77
2023/08/15 12:11:45;;;;;;;;;;;;;;;31.78;79.58;97843.81;5098134;28;19997;-77
2023/08/15 12:14:18;;;;;;;;;;;;;;;31.73;77.76;97852.50;5100795;28;19974;-77
2023/08/15 12:16:45;;;;;;;;;;;;;;;31.74;78.22;97843.03;5098246;28;19935;-76
2023/08/15 12:19:11;;;;;;;;;;;;;;;31.83;78.89;97835.06;5097191;28;19924;-76
2023/08/15 12:21:37;;;;;;;;;;;;;;;31.98;76.40;97831.03;5096255;28;20270;-77
2023/08/15 12:24:05;;;;;;;;;;;;;;;32.04;77.14;97829.44;5100811;28;19924;-77
2023/08/15 12:27:01;;;;;;;;;;;;;;;32.06;78.80;97827.03;5087158;22;19969;-75
2023/08/15 12:29:27;;;;;;;;;;;;;;;32.03;79.89;97821.56;5054532;28;19929;-75
2023/08/15 12:56:00;;;;;;;;;;;;;;;32.31;75.33;97752.22;5164224;22;19923;-90
2023/08/15 12:58:27;;;;;;;;;;;;;;;32.30;76.03;97747.88;5113871;28;19946;-84
2023/08/15 13:00:53;;;;;;;;;;;;;;;32.30;76.14;97753.41;5109348;28;20226;-84
2023/08/15 13:03:19;;;;;;;;;;;;;;;32.30;74.15;97747.88;5108729;28;19927;-85
2023/08/15 13:05:47;;;;;;;;;;;;;;;32.40;75.72;97746.97;5113909;28;19931;-83
2023/08/15 13:08:14;;;;;;;;;;;;;;;32.50;76.91;97745.31;5108025;28;19928;-84
2023/08/15 13:10:40;;;;;;;;;;;;;;;32.73;72.79;97734.41;5110000;28;19920;-84
2023/08/15 13:13:09;;;;;;;;;;;;;;;32.79;71.73;97741.06;5125684;28;19971;-84
2023/08/15 13:15:35;;;;;;;;;;;;;;;32.82;70.01;97739.44;5115450;28;19924;-84
2023/08/15 13:18:02;;;;;;;;;;;;;;;32.47;74.41;97744.16;5113669;28;19926;-85